This is the latest recevied weather packets stored in our database for station/object 9W2CEW-1. If no packets are shown the sender has not sent any weather packets the latest 10 day(s).
| Time | Temp. | Humidity | Pressure | Rain* | Wind** | Luminosity | Snow |
|---|---|---|---|---|---|---|---|
| 1777120768 | 22.78° C | 100% | 1004.3 hPa | - | - | - | - |
| 1777119890 | 22.22° C | 100% | 1004.6 hPa | - | - | - | - |
| 1777119859 | 22.22° C | 100% | 1004.6 hPa | - | - | - | - |
| 1777118962 | 22.22° C | 100% | 1004.6 hPa | - | - | - | - |
| 1777118058 | 22.78° C | 100% | 1004.3 hPa | - | - | - | - |
| 1777117157 | 24.44° C | 100% | 1004.7 hPa | - | - | - | - |
| 1777116302 | 27.78° C | 79% | 1003.6 hPa | - | - | - | - |
| 1777116257 | 27.78° C | 79% | 1003.6 hPa | - | - | - | - |
| 1777115608 | 28.89° C | 81% | 1003 hPa | - | - | - | - |
| 1777115357 | 28.89° C | 81% | 1003 hPa | - | - | - | - |
| 1777114457 | 28.89° C | 80% | 1002.5 hPa | - | - | - | - |
| 1777113557 | 28.89° C | 79% | 1002.4 hPa | - | - | - | - |
| 1777113248 | 29.44° C | 73% | 1001.9 hPa | - | - | - | - |
| 1777112657 | 29.44° C | 74% | 1002 hPa | - | - | - | - |
| 1777111787 | 28.89° C | 76% | 1001.3 hPa | - | - | - | - |
| 1777111760 | 29.44° C | 73% | 1001.9 hPa | - | - | - | - |
| 1777110932 | 28.89° C | 77% | 1001.2 hPa | - | - | - | - |
| 1777110856 | 28.89° C | 72% | 1001.2 hPa | - | - | - | - |
| 1777109956 | 28.89° C | 76% | 1001.3 hPa | - | - | - | - |
| 1777109057 | 28.89° C | 77% | 1001.2 hPa | - | - | - | - |
| 1777108493 | 28.33° C | 75% | 1001.3 hPa | - | - | - | - |
| 1777108155 | 28.33° C | 80% | 1001.4 hPa | - | - | - | - |
| 1777107701 | 28.89° C | 88% | 1001.5 hPa | - | - | - | - |
| 1777107255 | 27.78° C | 82% | 1001.2 hPa | - | - | - | - |
| 1777106355 | 28.33° C | 75% | 1001.3 hPa | - | - | - | - |
* Rain since midnight (hover to see other rain measurements)
** Current wind speed in m/s (hover to see current wind gust speed)